Time;durP1;ratioP1;P1;durP2;ratioP2;P2;SDS_P1;SDS_P2;PMS_P1;PMS_P2;Temp;Humidity;BMP_temperature;BMP_pressure;BME280_temperature;BME280_humidity;BME280_pressure;Samples;Min_cycle;Max_cycle;Signal;HPM_P1;HPM_P2
2023/10/24 00:01:59;;;;;;;3.20;2.90;;;15.50;99.80;;;;;;4945432;28;20436;-70
2023/10/24 00:04:30;;;;;;;3.23;2.93;;;15.50;99.80;;;;;;4945180;28;20438;-70
2023/10/24 00:07:01;;;;;;;5.53;2.50;;;15.50;99.80;;;;;;4961223;28;20767;-71
2023/10/24 00:09:29;;;;;;;4.00;2.93;;;15.50;99.80;;;;;;4961122;28;20453;-71
2023/10/24 00:11:56;;;;;;;2.93;2.27;;;15.50;99.80;;;;;;4963096;28;20772;-71
2023/10/24 00:14:22;;;;;;;3.27;2.70;;;15.50;99.80;;;;;;4962420;28;20434;-70
2023/10/24 00:16:50;;;;;;;4.93;2.70;;;15.50;99.90;;;;;;4948056;28;20974;-70
2023/10/24 00:19:17;;;;;;;5.87;2.53;;;15.50;99.90;;;;;;4964922;28;20448;-71
2023/10/24 00:21:44;;;;;;;3.77;2.73;;;15.50;99.90;;;;;;4948302;28;20460;-71
2023/10/24 00:24:11;;;;;;;2.73;2.50;;;15.50;99.90;;;;;;4948115;28;20447;-71
2023/10/24 00:26:38;;;;;;;3.47;2.67;;;15.50;99.90;;;;;;4947576;28;20450;-71
2023/10/24 00:29:04;;;;;;;4.93;2.80;;;15.50;99.90;;;;;;4964545;28;20462;-71
2023/10/24 00:31:31;;;;;;;4.73;3.03;;;15.50;99.90;;;;;;4947314;28;20931;-71
2023/10/24 00:33:57;;;;;;;3.30;2.90;;;15.50;99.90;;;;;;4962992;28;20466;-70
2023/10/24 00:36:24;;;;;;;3.30;3.00;;;15.50;99.90;;;;;;4947671;28;20424;-71
2023/10/24 00:38:52;;;;;;;3.80;2.87;;;15.50;99.90;;;;;;4963202;28;20569;-71
2023/10/24 00:41:22;;;;;;;3.60;2.60;;;15.50;99.90;;;;;;4964985;28;20422;-70
2023/10/24 00:43:52;;;;;;;2.50;2.30;;;15.50;99.90;;;;;;4964815;28;20453;-71
2023/10/24 00:46:18;;;;;;;3.60;2.77;;;15.50;99.90;;;;;;4963565;28;20684;-70
2023/10/24 00:48:44;;;;;;;4.03;2.87;;;15.50;99.90;;;;;;4963185;28;20465;-71
2023/10/24 00:51:12;;;;;;;2.83;2.63;;;15.50;99.90;;;;;;4946941;28;20455;-71
2023/10/24 00:53:40;;;;;;;2.57;2.37;;;15.50;99.90;;;;;;4946751;28;20961;-71
2023/10/24 00:56:11;;;;;;;6.57;2.53;;;15.50;99.90;;;;;;4962594;28;20456;-71
2023/10/24 00:58:38;;;;;;;3.63;2.43;;;15.50;99.90;;;;;;4962644;28;20489;-71
2023/10/24 01:01:16;;;;;;;4.10;2.83;;;15.50;99.90;;;;;;4963306;28;20451;-71
2023/10/24 01:03:46;;;;;;;4.40;2.60;;;15.50;99.90;;;;;;4964686;28;20423;-71
2023/10/24 01:06:18;;;;;;;5.23;2.67;;;15.50;99.90;;;;;;4947537;28;20422;-71
2023/10/24 01:08:46;;;;;;;2.93;2.60;;;15.50;99.90;;;;;;4962612;28;21091;-71
2023/10/24 01:11:21;;;;;;;3.53;2.40;;;15.50;99.90;;;;;;4963210;28;20453;-71
2023/10/24 01:13:50;;;;;;;5.10;3.37;;;15.50;99.90;;;;;;4947054;28;20426;-71
2023/10/24 01:16:21;;;;;;;4.37;2.73;;;15.50;99.90;;;;;;4963133;28;20936;-71
2023/10/24 01:18:55;;;;;;;2.57;2.37;;;15.50;99.90;;;;;;4946719;28;20426;-70
2023/10/24 01:21:21;;;;;;;4.00;3.00;;;15.50;99.90;;;;;;4962314;28;20429;-71
2023/10/24 01:23:53;;;;;;;5.10;3.00;;;15.50;99.90;;;;;;4962539;28;20858;-71
2023/10/24 01:26:19;;;;;;;3.60;3.10;;;15.50;99.90;;;;;;4962457;28;20464;-70
2023/10/24 01:28:49;;;;;;;4.00;2.80;;;15.50;99.90;;;;;;4945282;28;20472;-71
2023/10/24 01:31:15;;;;;;;2.87;2.67;;;15.50;99.90;;;;;;4946401;28;20961;-70
2023/10/24 01:33:43;;;;;;;3.53;3.17;;;15.50;99.90;;;;;;4962341;28;20466;-71
2023/10/24 01:36:10;;;;;;;5.60;3.23;;;15.50;99.90;;;;;;4962473;28;21176;-71
2023/10/24 01:38:39;;;;;;;4.10;3.70;;;15.50;99.90;;;;;;4947270;28;20806;-71
2023/10/24 01:41:05;;;;;;;5.27;3.40;;;15.50;99.90;;;;;;4963357;28;20435;-71
2023/10/24 01:43:34;;;;;;;3.60;3.03;;;15.50;99.90;;;;;;4961817;28;20449;-71
2023/10/24 01:46:02;;;;;;;3.23;2.80;;;15.50;99.90;;;;;;4961980;28;21105;-70
2023/10/24 01:48:29;;;;;;;4.80;2.87;;;15.50;99.90;;;;;;4929924;28;20702;-71
2023/10/24 01:50:57;;;;;;;5.97;3.03;;;15.50;99.90;;;;;;4962020;28;21255;-71
2023/10/24 01:53:28;;;;;;;2.40;2.20;;;15.50;99.90;;;;;;4945987;28;20549;-71
2023/10/24 01:55:55;;;;;;;3.67;2.80;;;15.50;99.90;;;;;;4961182;28;21150;-71
2023/10/24 01:58:21;;;;;;;3.03;2.73;;;15.50;99.90;;;;;;4961894;28;20699;-71
2023/10/24 02:00:47;;;;;;;4.07;2.97;;;15.50;99.90;;;;;;4961476;28;20522;-71
2023/10/24 02:03:16;;;;;;;5.77;3.50;;;15.50;99.90;;;;;;4945677;28;20673;-70
2023/10/24 02:05:42;;;;;;;3.50;2.97;;;15.50;99.90;;;;;;4945011;28;20447;-71
2023/10/24 02:08:10;;;;;;;4.30;2.90;;;15.50;99.90;;;;;;4961990;28;20469;-70
2023/10/24 02:10:39;;;;;;;3.03;2.73;;;15.50;99.90;;;;;;4961620;28;20793;-70
2023/10/24 02:13:05;;;;;;;4.40;3.03;;;15.50;99.90;;;;;;4963197;28;20414;-71
2023/10/24 02:15:31;;;;;;;3.27;2.97;;;15.50;99.90;;;;;;4961168;28;20456;-70
2023/10/24 02:17:57;;;;;;;3.20;2.90;;;15.50;99.90;;;;;;4963289;28;20453;-71
2023/10/24 02:20:23;;;;;;;3.30;3.00;;;15.50;99.90;;;;;;4945938;28;21285;-71
2023/10/24 02:22:51;;;;;;;8.27;2.87;;;15.50;99.90;;;;;;4946171;28;20533;-71
2023/10/24 02:25:20;;;;;;;3.50;2.57;;;15.50;99.90;;;;;;4961227;28;20444;-71
2023/10/24 02:27:49;;;;;;;3.43;3.20;;;15.50;99.90;;;;;;4945615;28;20913;-71
2023/10/24 02:30:15;;;;;;;3.20;2.90;;;15.50;99.90;;;;;;4945096;28;20479;-71
2023/10/24 02:32:41;;;;;;;3.30;2.53;;;15.50;99.90;;;;;;4962528;28;20427;-70
2023/10/24 02:35:08;;;;;;;2.67;2.47;;;15.50;99.90;;;;;;4960752;28;20455;-71
2023/10/24 02:37:33;;;;;;;3.77;2.80;;;15.50;99.90;;;;;;4961140;28;20432;-71
2023/10/24 02:40:02;;;;;;;4.27;2.77;;;15.50;99.90;;;;;;4960586;28;20452;-71
2023/10/24 02:42:29;;;;;;;2.87;2.67;;;15.50;99.90;;;;;;4960668;28;20183;-71
2023/10/24 02:44:58;;;;;;;3.10;2.80;;;15.50;99.90;;;;;;4962327;28;21140;-71
2023/10/24 02:47:25;;;;;;;3.43;2.80;;;15.50;99.90;;;;;;4960502;28;20480;-71
2023/10/24 02:49:53;;;;;;;3.10;2.80;;;15.50;99.90;;;;;;4960082;28;20462;-71
2023/10/24 02:52:20;;;;;;;2.90;2.70;;;15.50;99.90;;;;;;4945093;28;20442;-71
2023/10/24 02:54:54;;;;;;;4.17;2.63;;;15.50;99.90;;;;;;4959959;28;21017;-71
2023/10/24 02:57:22;;;;;;;2.87;2.47;;;15.50;99.90;;;;;;4960579;28;20976;-71
2023/10/24 02:59:56;;;;;;;3.23;2.83;;;15.50;99.90;;;;;;4928237;28;20460;-70
2023/10/24 03:02:23;;;;;;;3.63;3.27;;;15.50;99.90;;;;;;4960458;28;20436;-70
2023/10/24 03:04:50;;;;;;;3.50;2.70;;;15.50;99.90;;;;;;4944596;28;20529;-71
2023/10/24 03:07:16;;;;;;;3.03;2.83;;;15.50;99.90;;;;;;4944688;28;20520;-70
2023/10/24 03:09:42;;;;;;;3.17;2.87;;;15.50;99.90;;;;;;4961503;28;20549;-71
2023/10/24 03:12:14;;;;;;;3.87;2.97;;;15.40;99.90;;;;;;4944748;28;21000;-70
2023/10/24 03:14:46;;;;;;;3.07;2.80;;;15.40;99.90;;;;;;4960507;28;20797;-70
2023/10/24 03:17:14;;;;;;;3.50;3.20;;;15.50;99.90;;;;;;4961749;28;20454;-71
2023/10/24 03:19:43;;;;;;;3.47;3.17;;;15.50;99.90;;;;;;4960650;28;21282;-71
2023/10/24 03:22:14;;;;;;;3.80;3.50;;;15.50;99.90;;;;;;4960781;28;20464;-71
2023/10/24 03:24:42;;;;;;;3.57;3.30;;;15.40;99.90;;;;;;4944348;28;20435;-71
2023/10/24 03:27:13;;;;;;;6.87;3.40;;;15.50;99.90;;;;;;4960509;28;20479;-70
2023/10/24 03:29:41;;;;;;;4.40;3.20;;;15.40;99.90;;;;;;4945141;28;20473;-71
2023/10/24 03:32:12;;;;;;;5.00;3.20;;;15.40;99.90;;;;;;4960443;28;20427;-71
2023/10/24 03:34:43;;;;;;;3.17;2.97;;;15.50;99.90;;;;;;4944645;28;20439;-71
2023/10/24 03:37:09;;;;;;;4.57;3.70;;;15.50;99.90;;;;;;4960668;28;20433;-71
2023/10/24 03:39:37;;;;;;;3.47;3.17;;;15.40;99.90;;;;;;4960595;28;20449;-71
2023/10/24 03:42:11;;;;;;;3.03;2.83;;;15.40;99.90;;;;;;4944678;28;20784;-71
2023/10/24 03:44:37;;;;;;;3.27;2.97;;;15.50;99.90;;;;;;4928724;28;20426;-71
2023/10/24 03:47:05;;;;;;;3.50;3.20;;;15.40;99.90;;;;;;4944081;28;20422;-71
2023/10/24 03:49:31;;;;;;;3.53;3.33;;;15.40;99.90;;;;;;4943921;28;21020;-71
2023/10/24 03:52:05;;;;;;;3.03;2.70;;;15.40;99.90;;;;;;4943790;28;20545;-70
2023/10/24 03:54:33;;;;;;;3.30;3.00;;;15.40;99.90;;;;;;4961927;28;20966;-71
2023/10/24 03:57:00;;;;;;;5.07;3.30;;;15.40;99.90;;;;;;4944261;28;20492;-70
2023/10/24 03:59:26;;;;;;;3.43;3.10;;;15.40;99.90;;;;;;4960329;28;20463;-70
2023/10/24 04:01:56;;;;;;;3.60;3.30;;;15.40;99.90;;;;;;4943843;28;20439;-71
2023/10/24 04:04:23;;;;;;;2.90;2.70;;;15.40;99.90;;;;;;4960108;28;20419;-71
2023/10/24 04:06:54;;;;;;;3.33;3.03;;;15.40;99.90;;;;;;4961033;28;20495;-71
2023/10/24 04:09:21;;;;;;;3.33;3.03;;;15.40;99.90;;;;;;4959918;28;20464;-70
2023/10/24 04:11:50;;;;;;;4.90;3.10;;;15.40;99.90;;;;;;4960490;28;20455;-71
2023/10/24 04:14:15;;;;;;;3.50;3.20;;;15.40;99.90;;;;;;4960567;28;20440;-70
2023/10/24 04:16:44;;;;;;;3.03;2.83;;;15.40;99.90;;;;;;4945473;28;20785;-71
2023/10/24 04:19:10;;;;;;;2.87;2.67;;;15.40;99.90;;;;;;4960909;28;20468;-71
2023/10/24 04:21:37;;;;;;;3.43;2.60;;;15.40;99.90;;;;;;4944904;28;20449;-70
2023/10/24 04:24:03;;;;;;;2.93;2.73;;;15.40;99.90;;;;;;4982755;23;20496;-80
2023/10/24 04:26:29;;;;;;;3.07;2.87;;;15.40;99.90;;;;;;4928505;28;20475;-82
2023/10/24 04:28:55;;;;;;;2.83;2.63;;;15.40;99.90;;;;;;4983456;28;20855;-80
2023/10/24 04:31:21;;;;;;;2.30;2.20;;;15.40;99.90;;;;;;4934638;28;20437;-80
2023/10/24 04:33:47;;;;;;;4.70;2.67;;;15.40;99.90;;;;;;4961487;28;20936;-79
2023/10/24 04:36:14;;;;;;;3.03;2.53;;;15.40;99.90;;;;;;4956133;28;20448;-80
2023/10/24 04:38:45;;;;;;;2.77;2.57;;;15.40;99.90;;;;;;4968954;28;20455;-80
2023/10/24 04:41:13;;;;;;;2.97;2.70;;;15.40;99.90;;;;;;4970319;28;20455;-80
2023/10/24 04:43:39;;;;;;;2.47;2.17;;;15.40;99.90;;;;;;4975067;28;20438;-80
2023/10/24 04:46:05;;;;;;;2.77;2.57;;;15.40;99.90;;;;;;4962498;28;20441;-79
2023/10/24 04:48:33;;;;;;;2.60;2.40;;;15.40;99.90;;;;;;4963444;28;20560;-81
2023/10/24 04:50:59;;;;;;;2.70;2.50;;;15.40;99.90;;;;;;4958935;28;20430;-79
2023/10/24 04:53:25;;;;;;;2.57;2.37;;;15.40;99.90;;;;;;4956977;28;21288;-80
2023/10/24 04:55:54;;;;;;;6.93;2.80;;;15.40;99.90;;;;;;4961834;28;20203;-80
2023/10/24 04:58:20;;;;;;;2.97;2.77;;;15.40;99.90;;;;;;4963351;28;20422;-79
2023/10/24 05:00:46;;;;;;;2.80;2.57;;;15.40;99.90;;;;;;4961244;28;20236;-80
2023/10/24 05:03:12;;;;;;;2.50;2.40;;;15.40;99.90;;;;;;4946304;28;20598;-79
2023/10/24 05:05:38;;;;;;;2.80;2.60;;;15.40;99.90;;;;;;4948679;29;20225;-80
2023/10/24 05:08:10;;;;;;;2.70;2.60;;;15.40;99.90;;;;;;4957090;28;20489;-80
2023/10/24 05:10:36;;;;;;;3.77;2.30;;;15.40;99.90;;;;;;4957610;28;20607;-79
2023/10/24 05:13:02;;;;;;;3.43;3.13;;;15.40;99.90;;;;;;4948272;28;20450;-81
2023/10/24 05:15:31;;;;;;;2.50;2.30;;;15.40;99.90;;;;;;4965912;28;20425;-80
2023/10/24 05:17:57;;;;;;;2.70;2.50;;;15.40;99.90;;;;;;4969474;28;20454;-80
2023/10/24 05:20:25;;;;;;;2.40;2.30;;;15.40;99.90;;;;;;4953885;29;20433;-80
2023/10/24 05:22:51;;;;;;;2.13;2.03;;;15.40;99.90;;;;;;4954283;28;20479;-80
2023/10/24 05:25:19;;;;;;;2.60;2.40;;;15.40;99.90;;;;;;4964475;28;20473;-80
2023/10/24 05:27:45;;;;;;;4.30;2.40;;;15.40;99.90;;;;;;4962444;28;20495;-81
2023/10/24 05:30:12;;;;;;;2.60;2.40;;;15.40;99.90;;;;;;4924462;28;20449;-80
2023/10/24 05:32:38;;;;;;;2.13;2.03;;;15.40;99.90;;;;;;4955795;28;20517;-79
2023/10/24 05:35:07;;;;;;;2.87;2.67;;;15.40;99.90;;;;;;4941022;28;20470;-81
2023/10/24 05:37:32;;;;;;;2.60;2.40;;;15.40;99.90;;;;;;4947903;28;20485;-82
2023/10/24 05:39:58;;;;;;;2.93;2.73;;;15.40;99.90;;;;;;4955812;28;20421;-81
2023/10/24 05:42:24;;;;;;;2.50;2.30;;;15.40;99.90;;;;;;4950164;29;20239;-84
2023/10/24 05:44:50;;;;;;;2.67;2.50;;;15.40;99.90;;;;;;4954444;28;21154;-82
2023/10/24 05:47:16;;;;;;;3.00;2.30;;;15.40;99.90;;;;;;4959237;28;20211;-84
2023/10/24 05:49:42;;;;;;;2.90;2.70;;;15.40;99.80;;;;;;4969268;28;20824;-83
2023/10/24 05:52:10;;;;;;;3.30;2.90;;;15.40;99.80;;;;;;4956745;28;20430;-82
2023/10/24 05:54:36;;;;;;;2.70;2.33;;;15.40;99.80;;;;;;4945334;29;20549;-82
2023/10/24 05:57:03;;;;;;;2.43;2.30;;;15.30;99.70;;;;;;4960789;28;20805;-83
2023/10/24 05:59:29;;;;;;;2.43;2.23;;;15.30;99.70;;;;;;4960651;28;20552;-82
2023/10/24 06:01:55;;;;;;;2.70;2.50;;;15.30;99.70;;;;;;4955328;28;20468;-82
2023/10/24 06:04:34;;;;;;;2.83;2.63;;;15.30;99.70;;;;;;4939968;28;20513;-82
2023/10/24 06:07:58;;;;;;;2.80;2.60;;;15.40;99.70;;;;;;4961228;28;20451;-82
2023/10/24 06:11:11;;;;;;;2.87;2.50;;;15.30;99.60;;;;;;4962024;28;20545;-84
2023/10/24 06:13:44;;;;;;;2.50;2.30;;;15.30;99.70;;;;;;4950322;28;20472;-82
2023/10/24 06:16:19;;;;;;;2.57;2.37;;;15.30;99.70;;;;;;4944587;29;20533;-82
2023/10/24 06:18:49;;;;;;;2.63;2.43;;;15.30;99.60;;;;;;4953819;28;20422;-83
2023/10/24 06:21:18;;;;;;;2.83;2.63;;;15.30;99.60;;;;;;4967718;28;20757;-84
2023/10/24 06:23:48;;;;;;;2.27;2.17;;;15.30;99.70;;;;;;4952840;28;20454;-82
2023/10/24 06:26:20;;;;;;;2.87;2.60;;;15.30;99.70;;;;;;4959213;28;20466;-83
2023/10/24 06:28:53;;;;;;;2.90;2.60;;;15.30;99.70;;;;;;4961315;28;20486;-83
2023/10/24 06:31:19;;;;;;;2.43;2.30;;;15.30;99.60;;;;;;4958009;28;20442;-82
2023/10/24 06:33:45;;;;;;;4.47;2.80;;;15.30;99.60;;;;;;4951834;28;20486;-83
2023/10/24 06:36:11;;;;;;;2.73;2.53;;;15.30;99.60;;;;;;4963884;28;20429;-82
2023/10/24 06:38:36;;;;;;;2.47;2.20;;;15.30;99.60;;;;;;4970574;28;20195;-83
2023/10/24 06:41:05;;;;;;;2.47;2.33;;;15.30;99.60;;;;;;4935699;29;20460;-83
2023/10/24 06:43:31;;;;;;;2.70;2.50;;;15.30;99.60;;;;;;4959167;28;20199;-83
2023/10/24 06:45:57;;;;;;;2.47;2.37;;;15.30;99.60;;;;;;4970389;28;20464;-82
2023/10/24 06:48:25;;;;;;;2.70;2.50;;;15.30;99.60;;;;;;4962261;28;20793;-83
2023/10/24 06:50:51;;;;;;;2.37;2.17;;;15.30;99.60;;;;;;4970626;28;20436;-82
2023/10/24 06:53:17;;;;;;;2.73;2.10;;;15.30;99.50;;;;;;4946617;28;20437;-82
2023/10/24 06:55:43;;;;;;;2.60;2.40;;;15.30;99.60;;;;;;4954917;28;20193;-83
2023/10/24 06:58:12;;;;;;;2.10;2.00;;;15.30;99.50;;;;;;4950654;29;20224;-83
2023/10/24 07:00:40;;;;;;;3.00;2.00;;;15.30;99.50;;;;;;4958869;28;20571;-82
2023/10/24 07:03:08;;;;;;;2.50;2.40;;;15.30;99.50;;;;;;4971305;28;20913;-82
2023/10/24 07:05:39;;;;;;;2.30;2.10;;;15.30;99.50;;;;;;4939341;29;20518;-82
2023/10/24 07:08:07;;;;;;;2.00;1.90;;;15.30;99.50;;;;;;4956289;28;20455;-82
2023/10/24 07:10:33;;;;;;;4.20;2.43;;;15.30;99.50;;;;;;4962488;28;20540;-83
2023/10/24 07:13:02;;;;;;;4.03;3.30;;;15.30;99.50;;;;;;4954831;28;20446;-83
2023/10/24 07:15:35;;;;;;;2.37;2.20;;;15.30;99.50;;;;;;4964516;28;20436;-82
2023/10/24 07:18:04;;;;;;;2.00;1.90;;;15.30;99.50;;;;;;4974395;28;20439;-83
2023/10/24 07:20:30;;;;;;;2.30;2.10;;;15.30;99.50;;;;;;4978070;28;20450;-83
2023/10/24 07:22:58;;;;;;;2.70;2.50;;;15.30;99.50;;;;;;4954553;28;20742;-82
2023/10/24 07:25:29;;;;;;;2.43;2.33;;;15.30;99.40;;;;;;4959351;28;21050;-82
2023/10/24 07:27:56;;;;;;;2.30;2.13;;;15.30;99.40;;;;;;4952400;29;20489;-81
2023/10/24 07:30:22;;;;;;;2.63;2.43;;;15.30;99.40;;;;;;4959789;28;20428;-82
2023/10/24 07:32:48;;;;;;;2.23;2.13;;;15.30;99.40;;;;;;4959432;28;20463;-82
2023/10/24 07:35:14;;;;;;;2.20;2.10;;;15.30;99.40;;;;;;4969475;28;20457;-82
2023/10/24 07:37:40;;;;;;;2.40;2.30;;;15.30;99.40;;;;;;4970538;28;20446;-81
2023/10/24 07:40:09;;;;;;;2.30;2.10;;;15.30;99.40;;;;;;4957900;28;20490;-81
2023/10/24 07:42:35;;;;;;;2.50;2.30;;;15.30;99.40;;;;;;4934559;29;20222;-82
2023/10/24 07:45:01;;;;;;;2.97;2.20;;;15.30;99.40;;;;;;4952930;28;20895;-83
2023/10/24 07:47:27;;;;;;;2.90;2.67;;;15.30;99.40;;;;;;4969461;28;20192;-82
2023/10/24 07:49:55;;;;;;;2.40;2.20;;;15.30;99.40;;;;;;4951497;28;20463;-82
2023/10/24 07:52:21;;;;;;;4.80;2.67;;;15.30;99.40;;;;;;4951672;29;20533;-80
2023/10/24 07:54:47;;;;;;;2.60;2.40;;;15.30;99.40;;;;;;4960303;28;20548;-82
2023/10/24 07:57:13;;;;;;;2.00;1.90;;;15.30;99.40;;;;;;4956822;28;20839;-83
2023/10/24 07:59:39;;;;;;;2.03;1.90;;;15.30;99.40;;;;;;4967465;28;20865;-82
2023/10/24 08:02:05;;;;;;;2.10;2.00;;;15.30;99.40;;;;;;4954964;28;20188;-83
2023/10/24 08:04:32;;;;;;;2.37;2.27;;;15.30;99.40;;;;;;4955756;28;20453;-82
2023/10/24 08:07:03;;;;;;;2.30;2.20;;;15.30;99.40;;;;;;4966283;28;20764;-81
2023/10/24 08:09:29;;;;;;;2.43;2.23;;;15.30;99.40;;;;;;4958363;28;21054;-84
2023/10/24 08:11:55;;;;;;;2.67;2.47;;;15.30;99.40;;;;;;4960903;28;20434;-82
2023/10/24 08:14:23;;;;;;;2.50;2.40;;;15.30;99.40;;;;;;4969416;28;20540;-83
2023/10/24 08:16:49;;;;;;;2.40;2.30;;;15.30;99.40;;;;;;4961076;28;20890;-82
2023/10/24 08:19:17;;;;;;;2.53;2.20;;;15.30;99.40;;;;;;4954732;28;20483;-81
2023/10/24 08:21:46;;;;;;;2.47;2.37;;;15.30;99.40;;;;;;4961173;28;20226;-82
2023/10/24 08:24:12;;;;;;;2.40;2.20;;;15.20;99.30;;;;;;4964925;28;20459;-82
2023/10/24 08:26:40;;;;;;;2.77;2.47;;;15.30;99.40;;;;;;4957972;28;20283;-82
2023/10/24 08:29:08;;;;;;;2.13;2.03;;;15.30;99.30;;;;;;4950210;29;20540;-82
2023/10/24 08:31:39;;;;;;;2.50;2.30;;;15.30;99.30;;;;;;4957872;28;20460;-81
2023/10/24 08:34:05;;;;;;;2.37;2.10;;;15.30;99.30;;;;;;4960858;28;20217;-82
2023/10/24 08:36:31;;;;;;;2.17;1.93;;;15.30;99.30;;;;;;4953889;28;20462;-81
2023/10/24 08:38:59;;;;;;;2.47;2.27;;;15.30;99.30;;;;;;4971485;28;20431;-82
2023/10/24 08:41:25;;;;;;;3.13;2.23;;;15.20;99.30;;;;;;4962579;28;20419;-83
2023/10/24 08:43:51;;;;;;;2.30;2.10;;;15.30;99.40;;;;;;4970728;28;20748;-82
2023/10/24 08:46:19;;;;;;;2.20;2.10;;;15.30;99.30;;;;;;4948589;28;20538;-83
2023/10/24 08:48:45;;;;;;;2.07;1.97;;;15.20;99.20;;;;;;4971545;28;20512;-82
2023/10/24 08:51:13;;;;;;;2.57;2.37;;;15.30;99.30;;;;;;4961419;28;20443;-82
2023/10/24 08:53:44;;;;;;;2.43;2.30;;;15.30;99.30;;;;;;4971875;28;20435;-82
2023/10/24 08:56:13;;;;;;;2.83;2.63;;;15.30;99.30;;;;;;4952458;29;20456;-83
2023/10/24 08:58:40;;;;;;;2.30;2.10;;;15.30;99.40;;;;;;4961469;28;20223;-83
2023/10/24 09:01:08;;;;;;;2.37;2.17;;;15.30;99.40;;;;;;4964716;28;20448;-83
2023/10/24 09:03:36;;;;;;;2.67;2.20;;;15.30;99.30;;;;;;4972331;28;20463;-81
2023/10/24 09:06:05;;;;;;;2.20;2.10;;;15.30;99.40;;;;;;4973397;28;20491;-84
2023/10/24 09:08:32;;;;;;;2.57;2.37;;;15.30;99.40;;;;;;4972110;28;20472;-83
2023/10/24 09:10:58;;;;;;;2.90;2.00;;;15.30;99.40;;;;;;4962970;28;20504;-83
2023/10/24 09:13:25;;;;;;;2.30;2.07;;;15.30;99.40;;;;;;4935788;28;20521;-82
2023/10/24 09:16:09;;;;;;;2.67;2.00;;;15.30;99.40;;;;;;4974032;28;20446;-82
2023/10/24 09:18:39;;;;;;;1.90;1.80;;;15.30;99.40;;;;;;4966848;28;20468;-83
2023/10/24 09:21:28;;;;;;;2.37;2.17;;;15.30;99.40;;;;;;4979053;28;20482;-83
2023/10/24 09:23:54;;;;;;;2.70;2.50;;;15.30;99.50;;;;;;4961575;28;20446;-83
2023/10/24 09:26:23;;;;;;;2.30;2.20;;;15.30;99.50;;;;;;4942531;29;20488;-83
2023/10/24 09:28:59;;;;;;;2.30;2.10;;;15.30;99.50;;;;;;4961374;28;20479;-82
2023/10/24 09:31:29;;;;;;;2.10;1.83;;;15.30;99.60;;;;;;4966069;28;20977;-83
2023/10/24 09:33:55;;;;;;;2.57;2.43;;;15.20;99.50;;;;;;4966399;28;20509;-82
2023/10/24 09:36:25;;;;;;;2.40;2.20;;;15.30;99.60;;;;;;4944457;29;20432;-83
2023/10/24 09:38:54;;;;;;;3.40;2.53;;;15.30;99.60;;;;;;4963311;28;20515;-82
2023/10/24 09:41:21;;;;;;;2.30;2.10;;;15.30;99.90;;;;;;4972767;28;20423;-82
2023/10/24 09:43:48;;;;;;;2.30;2.20;;;15.30;99.50;;;;;;4965061;28;20503;-83
2023/10/24 09:46:21;;;;;;;2.07;1.97;;;15.30;99.50;;;;;;4966512;28;20472;-83
2023/10/24 09:48:49;;;;;;;2.70;2.50;;;15.20;99.40;;;;;;4967729;28;20491;-82
2023/10/24 09:51:19;;;;;;;2.37;2.17;;;15.30;99.80;;;;;;4965298;28;20455;-82
2023/10/24 09:53:49;;;;;;;2.83;1.93;;;15.30;99.30;;;;;;4963709;28;21005;-82
2023/10/24 09:56:16;;;;;;;2.50;2.30;;;15.30;99.30;;;;;;4960099;28;20499;-83
2023/10/24 09:58:43;;;;;;;2.53;2.33;;;15.30;99.30;;;;;;4952901;28;20910;-81
2023/10/24 10:01:09;;;;;;;3.30;2.20;;;15.30;99.30;;;;;;4952325;29;20451;-82
2023/10/24 10:03:36;;;;;;;2.47;2.27;;;15.30;99.30;;;;;;4960572;28;21005;-83
2023/10/24 10:06:05;;;;;;;2.30;2.10;;;15.30;99.30;;;;;;4964091;28;20509;-82
2023/10/24 10:08:40;;;;;;;3.27;2.47;;;15.30;99.30;;;;;;4945108;29;20802;-82
2023/10/24 10:11:09;;;;;;;2.43;2.23;;;15.30;99.30;;;;;;4933389;29;20431;-83
2023/10/24 10:13:38;;;;;;;4.70;3.20;;;15.30;99.40;;;;;;4916644;29;21046;-82
2023/10/24 10:16:32;;;;;;;2.67;2.47;;;15.30;99.40;;;;;;4932703;29;20456;-82
2023/10/24 10:19:29;;;;;;;2.30;2.10;;;15.30;99.30;;;;;;4951806;29;20469;-81
2023/10/24 10:22:20;;;;;;;2.40;2.20;;;15.30;99.30;;;;;;4937478;29;21128;-82
2023/10/24 10:25:00;;;;;;;2.20;2.00;;;15.30;99.30;;;;;;4952433;28;20550;-83
2023/10/24 10:27:55;;;;;;;2.20;2.10;;;15.30;99.30;;;;;;4971564;28;20472;-83
2023/10/24 10:30:21;;;;;;;3.03;2.20;;;15.30;99.20;;;;;;4944062;29;20893;-83
2023/10/24 10:33:04;;;;;;;2.57;2.47;;;15.30;99.30;;;;;;4925270;28;20550;-82
2023/10/24 10:35:55;;;;;;;2.37;2.17;;;15.30;99.30;;;;;;4943962;29;20454;-82
2023/10/24 10:38:44;;;;;;;4.10;2.23;;;15.30;99.30;;;;;;4965431;28;20535;-83
2023/10/24 10:41:28;;;;;;;2.70;2.50;;;15.40;99.70;;;;;;4954954;28;20509;-82
2023/10/24 10:43:59;;;;;;;2.30;2.20;;;15.40;99.30;;;;;;4945590;28;20576;-84
2023/10/24 10:46:29;;;;;;;2.43;2.23;;;15.40;99.30;;;;;;4951307;29;20443;-82
2023/10/24 10:49:06;;;;;;;2.20;2.10;;;15.40;99.30;;;;;;4944958;28;20479;-82
2023/10/24 10:51:38;;;;;;;2.70;2.50;;;15.40;99.30;;;;;;4962974;28;20521;-82
2023/10/24 10:54:20;;;;;;;2.63;2.10;;;15.40;99.30;;;;;;4952400;28;20433;-82
2023/10/24 10:56:50;;;;;;;5.13;2.60;;;15.40;99.30;;;;;;4959567;28;20453;-82
2023/10/24 10:59:37;;;;;;;2.30;2.20;;;15.50;99.20;;;;;;4955791;28;20428;-83
2023/10/24 11:02:16;;;;;;;3.00;2.77;;;15.50;99.30;;;;;;4951574;28;20856;-83
2023/10/24 11:04:45;;;;;;;2.80;2.60;;;15.50;99.30;;;;;;4949442;28;20455;-83
2023/10/24 11:07:15;;;;;;;4.20;3.07;;;15.50;99.20;;;;;;4970802;28;20422;-82
2023/10/24 11:09:42;;;;;;;2.23;2.13;;;15.50;99.20;;;;;;4963571;28;20490;-83
2023/10/24 11:12:25;;;;;;;2.30;2.10;;;15.50;99.20;;;;;;4931559;28;20308;-82
2023/10/24 11:15:18;;;;;;;2.47;2.37;;;15.50;99.20;;;;;;4970132;28;20460;-82
2023/10/24 11:17:46;;;;;;;2.60;2.40;;;15.50;99.20;;;;;;4944563;28;20442;-82
2023/10/24 11:20:12;;;;;;;2.50;2.40;;;15.50;99.60;;;;;;4971349;28;20419;-81
2023/10/24 11:22:38;;;;;;;3.43;2.40;;;15.50;99.20;;;;;;4956413;28;20452;-82
2023/10/24 11:25:30;;;;;;;2.20;2.00;;;15.50;99.20;;;;;;4964850;23;20498;-70
2023/10/24 11:28:10;;;;;;;3.40;2.80;;;15.50;99.20;;;;;;4926373;29;21032;-70
2023/10/24 11:30:51;;;;;;;2.70;2.50;;;15.50;99.20;;;;;;4919591;29;20471;-70
2023/10/24 11:33:20;;;;;;;2.43;2.33;;;15.50;99.30;;;;;;4929755;29;20969;-70
2023/10/24 11:35:49;;;;;;;2.60;2.40;;;15.50;99.20;;;;;;4945539;29;20416;-70
2023/10/24 11:38:17;;;;;;;3.50;2.00;;;15.50;99.30;;;;;;4946943;28;20458;-70
2023/10/24 11:40:48;;;;;;;2.30;2.10;;;15.50;99.30;;;;;;4934984;29;20468;-70
2023/10/24 11:43:17;;;;;;;2.37;2.17;;;15.50;99.20;;;;;;4943990;29;20951;-75
2023/10/24 11:45:46;;;;;;;2.60;2.40;;;15.50;99.20;;;;;;4933572;28;20487;-76
2023/10/24 11:48:15;;;;;;;2.43;2.23;;;15.50;99.30;;;;;;4936956;29;21049;-75
2023/10/24 11:50:46;;;;;;;2.60;2.40;;;15.50;99.70;;;;;;4942568;28;20462;-76
2023/10/24 11:53:21;;;;;;;2.70;2.50;;;15.60;99.90;;;;;;4936388;29;20962;-72
2023/10/24 11:55:48;;;;;;;2.47;2.27;;;15.50;99.40;;;;;;4941535;28;20454;-72
2023/10/24 11:58:18;;;;;;;2.33;2.13;;;15.50;99.60;;;;;;4941340;29;20787;-71
2023/10/24 12:00:46;;;;;;;2.33;2.20;;;15.60;99.80;;;;;;4957187;28;20535;-71
2023/10/24 12:03:12;;;;;;;2.97;2.47;;;15.60;99.90;;;;;;4926569;29;20457;-72
2023/10/24 12:05:52;;;;;;;2.17;2.07;;;15.60;99.90;;;;;;4935830;28;20436;-70
2023/10/24 12:08:25;;;;;;;2.70;2.50;;;15.60;99.90;;;;;;4928166;29;20636;-71
2023/10/24 12:10:55;;;;;;;2.80;2.50;;;15.60;99.90;;;;;;4932765;28;20536;-71
2023/10/24 12:13:23;;;;;;;2.90;2.70;;;15.60;99.90;;;;;;4938469;28;20422;-71
2023/10/24 12:15:54;;;;;;;2.50;2.30;;;15.60;99.90;;;;;;4945188;28;21207;-70
2023/10/24 12:18:24;;;;;;;3.23;2.70;;;15.60;99.90;;;;;;4945040;29;20442;-72
2023/10/24 12:20:53;;;;;;;2.90;2.70;;;15.60;99.90;;;;;;4930715;28;20744;-72
2023/10/24 12:23:21;;;;;;;2.47;2.30;;;15.60;99.90;;;;;;4945041;29;21002;-72
2023/10/24 12:25:48;;;;;;;2.20;2.00;;;15.60;99.90;;;;;;4945967;28;20454;-71
2023/10/24 12:28:14;;;;;;;2.80;2.33;;;15.60;99.90;;;;;;4956102;28;20875;-72
2023/10/24 12:30:46;;;;;;;2.90;2.37;;;15.60;99.90;;;;;;4933368;28;20458;-71
2023/10/24 12:33:15;;;;;;;4.40;2.03;;;15.60;99.90;;;;;;4944826;28;20814;-72
2023/10/24 12:35:43;;;;;;;2.30;2.13;;;15.60;99.90;;;;;;4944610;29;20483;-70
2023/10/24 12:38:15;;;;;;;2.60;2.40;;;15.60;99.90;;;;;;4921343;29;20445;-70
2023/10/24 12:40:41;;;;;;;2.50;2.40;;;15.60;99.90;;;;;;4944825;28;20521;-71
2023/10/24 12:43:07;;;;;;;2.40;2.30;;;15.60;99.90;;;;;;4942869;29;20530;-70
2023/10/24 12:45:33;;;;;;;2.47;2.27;;;15.60;99.90;;;;;;4942849;29;20452;-70
2023/10/24 12:48:07;;;;;;;2.73;2.37;;;15.60;99.90;;;;;;4934870;29;20478;-71
2023/10/24 12:50:36;;;;;;;2.80;2.60;;;15.60;99.90;;;;;;4911035;29;21033;-71
2023/10/24 12:53:02;;;;;;;2.30;2.20;;;15.60;99.90;;;;;;4935769;28;20518;-70
2023/10/24 12:55:28;;;;;;;2.53;2.10;;;15.60;99.90;;;;;;4944504;28;20532;-70
2023/10/24 12:57:56;;;;;;;3.03;2.80;;;15.60;99.90;;;;;;4940030;28;20453;-70
2023/10/24 13:00:26;;;;;;;2.10;2.00;;;15.60;99.90;;;;;;4950650;28;20802;-70